sensor_id;sensor_type;location;lat;lon;timestamp;temperature;humidity
37910;DHT22;23741;49.446;8.754;2023-02-25T00:02:12;10.90;62.20
37910;DHT22;23741;49.446;8.754;2023-02-25T00:04:15;10.90;62.20
37910;DHT22;23741;49.446;8.754;2023-02-25T00:06:16;10.90;62.10
37910;DHT22;23741;49.446;8.754;2023-02-25T00:08:18;10.80;61.90
37910;DHT22;23741;49.446;8.754;2023-02-25T00:10:20;10.80;61.60
37910;DHT22;23741;49.446;8.754;2023-02-25T00:12:21;10.80;61.80
37910;DHT22;23741;49.446;8.754;2023-02-25T00:14:23;10.80;61.80
37910;DHT22;23741;49.446;8.754;2023-02-25T00:16:25;10.70;62.00
37910;DHT22;23741;49.446;8.754;2023-02-25T00:18:27;10.70;62.30
37910;DHT22;23741;49.446;8.754;2023-02-25T00:20:29;10.70;62.20
37910;DHT22;23741;49.446;8.754;2023-02-25T00:22:30;10.70;62.20
37910;DHT22;23741;49.446;8.754;2023-02-25T00:24:32;10.70;62.10
37910;DHT22;23741;49.446;8.754;2023-02-25T00:26:33;10.70;62.20
37910;DHT22;23741;49.446;8.754;2023-02-25T00:28:35;10.70;62.40
37910;DHT22;23741;49.446;8.754;2023-02-25T00:30:38;10.70;62.50
37910;DHT22;23741;49.446;8.754;2023-02-25T00:32:40;10.70;62.60
37910;DHT22;23741;49.446;8.754;2023-02-25T00:34:42;10.70;62.70
37910;DHT22;23741;49.446;8.754;2023-02-25T00:36:44;10.70;62.40
37910;DHT22;23741;49.446;8.754;2023-02-25T00:38:46;10.70;62.20
37910;DHT22;23741;49.446;8.754;2023-02-25T00:40:49;10.70;62.10
37910;DHT22;23741;49.446;8.754;2023-02-25T00:42:51;10.60;62.10
37910;DHT22;23741;49.446;8.754;2023-02-25T00:44:54;10.70;62.40
37910;DHT22;23741;49.446;8.754;2023-02-25T00:46:56;10.60;62.40
37910;DHT22;23741;49.446;8.754;2023-02-25T00:48:58;10.60;62.60
37910;DHT22;23741;49.446;8.754;2023-02-25T00:51:10;10.60;62.20
37910;DHT22;23741;49.446;8.754;2023-02-25T00:53:13;10.60;62.20
37910;DHT22;23741;49.446;8.754;2023-02-25T00:55:14;10.60;62.40
37910;DHT22;23741;49.446;8.754;2023-02-25T00:57:16;10.60;62.40
37910;DHT22;23741;49.446;8.754;2023-02-25T00:59:18;10.50;62.00
37910;DHT22;23741;49.446;8.754;2023-02-25T01:01:22;10.60;62.20
37910;DHT22;23741;49.446;8.754;2023-02-25T01:03:24;10.60;62.50
37910;DHT22;23741;49.446;8.754;2023-02-25T01:05:25;10.60;62.60
37910;DHT22;23741;49.446;8.754;2023-02-25T01:07:27;10.60;62.60
37910;DHT22;23741;49.446;8.754;2023-02-25T01:09:29;10.60;62.70
37910;DHT22;23741;49.446;8.754;2023-02-25T01:11:32;10.60;62.40
37910;DHT22;23741;49.446;8.754;2023-02-25T01:13:34;10.50;62.40
37910;DHT22;23741;49.446;8.754;2023-02-25T01:15:37;10.50;62.40
37910;DHT22;23741;49.446;8.754;2023-02-25T01:17:38;10.50;62.50
37910;DHT22;23741;49.446;8.754;2023-02-25T01:19:40;10.50;62.60
37910;DHT22;23741;49.446;8.754;2023-02-25T01:21:43;10.50;62.30
37910;DHT22;23741;49.446;8.754;2023-02-25T01:23:46;10.50;62.10
37910;DHT22;23741;49.446;8.754;2023-02-25T01:25:48;10.50;62.20
37910;DHT22;23741;49.446;8.754;2023-02-25T01:27:54;10.50;62.50
37910;DHT22;23741;49.446;8.754;2023-02-25T01:29:55;10.40;62.50
37910;DHT22;23741;49.446;8.754;2023-02-25T01:31:58;10.40;62.50
37910;DHT22;23741;49.446;8.754;2023-02-25T01:34:01;10.40;62.60
37910;DHT22;23741;49.446;8.754;2023-02-25T01:36:04;10.40;62.40
37910;DHT22;23741;49.446;8.754;2023-02-25T01:38:06;10.40;62.70
37910;DHT22;23741;49.446;8.754;2023-02-25T01:40:08;10.40;62.70
37910;DHT22;23741;49.446;8.754;2023-02-25T01:42:15;10.40;62.70
37910;DHT22;23741;49.446;8.754;2023-02-25T01:44:21;10.40;62.60
37910;DHT22;23741;49.446;8.754;2023-02-25T01:46:25;10.40;62.50
37910;DHT22;23741;49.446;8.754;2023-02-25T01:48:27;10.40;62.40
37910;DHT22;23741;49.446;8.754;2023-02-25T01:50:36;10.40;62.50
37910;DHT22;23741;49.446;8.754;2023-02-25T01:52:40;10.40;62.70
37910;DHT22;23741;49.446;8.754;2023-02-25T01:54:42;10.40;62.90
37910;DHT22;23741;49.446;8.754;2023-02-25T01:56:47;10.30;62.50
37910;DHT22;23741;49.446;8.754;2023-02-25T01:58:50;10.40;62.40
37910;DHT22;23741;49.446;8.754;2023-02-25T02:00:52;10.30;62.30
37910;DHT22;23741;49.446;8.754;2023-02-25T02:02:56;10.40;62.40
37910;DHT22;23741;49.446;8.754;2023-02-25T02:04:59;10.30;62.30
37910;DHT22;23741;49.446;8.754;2023-02-25T02:07:00;10.30;62.40
37910;DHT22;23741;49.446;8.754;2023-02-25T02:09:04;10.30;62.30
37910;DHT22;23741;49.446;8.754;2023-02-25T02:11:07;10.30;62.60
37910;DHT22;23741;49.446;8.754;2023-02-25T02:13:09;10.30;62.40
37910;DHT22;23741;49.446;8.754;2023-02-25T02:15:12;10.30;62.40
37910;DHT22;23741;49.446;8.754;2023-02-25T02:19:27;10.30;62.70
37910;DHT22;23741;49.446;8.754;2023-02-25T02:21:42;10.30;62.50
37910;DHT22;23741;49.446;8.754;2023-02-25T02:23:52;10.30;63.40
37910;DHT22;23741;49.446;8.754;2023-02-25T02:33:21;10.20;62.90
37910;DHT22;23741;49.446;8.754;2023-02-25T02:35:32;10.20;62.90
37910;DHT22;23741;49.446;8.754;2023-02-25T02:37:57;10.20;62.80
37910;DHT22;23741;49.446;8.754;2023-02-25T02:42:15;10.30;62.70
37910;DHT22;23741;49.446;8.754;2023-02-25T02:44:34;10.30;62.20
37910;DHT22;23741;49.446;8.754;2023-02-25T02:46:44;10.20;62.10
37910;DHT22;23741;49.446;8.754;2023-02-25T02:48:49;10.20;62.20
37910;DHT22;23741;49.446;8.754;2023-02-25T02:50:56;10.20;62.00
37910;DHT22;23741;49.446;8.754;2023-02-25T02:53:00;10.20;61.70
37910;DHT22;23741;49.446;8.754;2023-02-25T02:55:05;10.20;62.00
37910;DHT22;23741;49.446;8.754;2023-02-25T02:57:08;10.20;62.10
37910;DHT22;23741;49.446;8.754;2023-02-25T02:59:13;10.20;62.20
37910;DHT22;23741;49.446;8.754;2023-02-25T03:01:22;10.20;62.30
37910;DHT22;23741;49.446;8.754;2023-02-25T03:03:28;10.20;62.30
37910;DHT22;23741;49.446;8.754;2023-02-25T03:05:37;10.20;62.50
37910;DHT22;23741;49.446;8.754;2023-02-25T03:07:42;10.20;62.60
37910;DHT22;23741;49.446;8.754;2023-02-25T03:09:48;10.20;62.70
37910;DHT22;23741;49.446;8.754;2023-02-25T03:11:51;10.10;62.50
37910;DHT22;23741;49.446;8.754;2023-02-25T03:13:53;10.20;62.20
37910;DHT22;23741;49.446;8.754;2023-02-25T03:15:55;10.10;62.20
37910;DHT22;23741;49.446;8.754;2023-02-25T03:18:04;10.10;62.30
37910;DHT22;23741;49.446;8.754;2023-02-25T03:20:24;10.20;62.40
37910;DHT22;23741;49.446;8.754;2023-02-25T03:22:28;10.10;62.40
37910;DHT22;23741;49.446;8.754;2023-02-25T03:24:34;10.10;62.40
37910;DHT22;23741;49.446;8.754;2023-02-25T03:26:38;10.10;62.40
37910;DHT22;23741;49.446;8.754;2023-02-25T03:28:46;10.10;62.30
37910;DHT22;23741;49.446;8.754;2023-02-25T03:30:58;10.10;62.40
37910;DHT22;23741;49.446;8.754;2023-02-25T03:33:04;10.10;62.40
37910;DHT22;23741;49.446;8.754;2023-02-25T03:35:07;10.10;62.40
37910;DHT22;23741;49.446;8.754;2023-02-25T03:37:12;10.10;62.40
37910;DHT22;23741;49.446;8.754;2023-02-25T03:39:18;10.10;62.40
37910;DHT22;23741;49.446;8.754;2023-02-25T03:41:24;10.10;62.20
37910;DHT22;23741;49.446;8.754;2023-02-25T03:43:28;10.10;62.20
37910;DHT22;23741;49.446;8.754;2023-02-25T03:45:32;10.10;61.90
37910;DHT22;23741;49.446;8.754;2023-02-25T03:47:35;10.10;61.90
37910;DHT22;23741;49.446;8.754;2023-02-25T03:49:53;10.10;62.10
37910;DHT22;23741;49.446;8.754;2023-02-25T03:51:56;10.10;62.00
37910;DHT22;23741;49.446;8.754;2023-02-25T03:54:00;10.10;62.10
37910;DHT22;23741;49.446;8.754;2023-02-25T03:56:07;10.10;62.20
37910;DHT22;23741;49.446;8.754;2023-02-25T03:58:10;10.10;62.10
37910;DHT22;23741;49.446;8.754;2023-02-25T04:00:17;10.10;62.20
37910;DHT22;23741;49.446;8.754;2023-02-25T04:02:19;10.10;62.10
37910;DHT22;23741;49.446;8.754;2023-02-25T04:04:21;10.10;62.10
37910;DHT22;23741;49.446;8.754;2023-02-25T04:06:23;10.10;62.10
37910;DHT22;23741;49.446;8.754;2023-02-25T04:08:25;10.10;62.10
37910;DHT22;23741;49.446;8.754;2023-02-25T04:10:27;10.10;62.10
37910;DHT22;23741;49.446;8.754;2023-02-25T04:12:29;10.10;62.10
37910;DHT22;23741;49.446;8.754;2023-02-25T04:14:31;10.10;62.20
37910;DHT22;23741;49.446;8.754;2023-02-25T04:16:32;10.10;62.10
37910;DHT22;23741;49.446;8.754;2023-02-25T04:18:35;10.10;62.10
37910;DHT22;23741;49.446;8.754;2023-02-25T04:20:38;10.10;62.00
37910;DHT22;23741;49.446;8.754;2023-02-25T04:22:41;10.10;62.00
37910;DHT22;23741;49.446;8.754;2023-02-25T04:24:43;10.10;62.20
37910;DHT22;23741;49.446;8.754;2023-02-25T04:26:45;10.00;62.10
37910;DHT22;23741;49.446;8.754;2023-02-25T04:28:46;10.10;62.30
37910;DHT22;23741;49.446;8.754;2023-02-25T04:30:48;10.10;62.40
37910;DHT22;23741;49.446;8.754;2023-02-25T04:32:50;10.10;62.40
37910;DHT22;23741;49.446;8.754;2023-02-25T04:34:52;10.10;62.40
37910;DHT22;23741;49.446;8.754;2023-02-25T04:36:53;10.10;62.50
37910;DHT22;23741;49.446;8.754;2023-02-25T04:38:55;10.10;62.40
37910;DHT22;23741;49.446;8.754;2023-02-25T04:40:57;10.10;62.30
37910;DHT22;23741;49.446;8.754;2023-02-25T04:42:59;10.10;62.30
37910;DHT22;23741;49.446;8.754;2023-02-25T04:45:01;10.10;62.40
37910;DHT22;23741;49.446;8.754;2023-02-25T04:47:02;10.10;62.30
37910;DHT22;23741;49.446;8.754;2023-02-25T04:49:04;10.10;62.20
37910;DHT22;23741;49.446;8.754;2023-02-25T04:51:06;10.00;62.10
37910;DHT22;23741;49.446;8.754;2023-02-25T04:53:08;10.10;62.30
37910;DHT22;23741;49.446;8.754;2023-02-25T04:55:10;10.10;62.30
37910;DHT22;23741;49.446;8.754;2023-02-25T04:57:11;10.10;62.30
37910;DHT22;23741;49.446;8.754;2023-02-25T04:59:13;10.10;62.30
37910;DHT22;23741;49.446;8.754;2023-02-25T05:01:15;10.10;62.20
37910;DHT22;23741;49.446;8.754;2023-02-25T05:03:17;10.00;62.10
37910;DHT22;23741;49.446;8.754;2023-02-25T05:05:18;10.00;62.20
37910;DHT22;23741;49.446;8.754;2023-02-25T05:07:20;10.00;62.20
37910;DHT22;23741;49.446;8.754;2023-02-25T05:09:22;10.00;62.20
37910;DHT22;23741;49.446;8.754;2023-02-25T05:11:24;10.00;62.30
37910;DHT22;23741;49.446;8.754;2023-02-25T05:13:26;10.00;62.40
37910;DHT22;23741;49.446;8.754;2023-02-25T05:15:28;10.00;62.40
37910;DHT22;23741;49.446;8.754;2023-02-25T05:17:31;10.00;62.50
37910;DHT22;23741;49.446;8.754;2023-02-25T05:19:33;10.00;62.60
37910;DHT22;23741;49.446;8.754;2023-02-25T05:21:34;10.00;62.60
37910;DHT22;23741;49.446;8.754;2023-02-25T05:23:37;10.00;62.60
37910;DHT22;23741;49.446;8.754;2023-02-25T05:25:38;10.00;62.60
37910;DHT22;23741;49.446;8.754;2023-02-25T05:27:43;10.00;62.50
37910;DHT22;23741;49.446;8.754;2023-02-25T05:29:45;10.10;62.50
37910;DHT22;23741;49.446;8.754;2023-02-25T05:31:47;10.10;62.60
37910;DHT22;23741;49.446;8.754;2023-02-25T05:33:51;10.00;62.50
37910;DHT22;23741;49.446;8.754;2023-02-25T05:35:53;10.00;62.40
37910;DHT22;23741;49.446;8.754;2023-02-25T05:37:54;10.00;62.30
37910;DHT22;23741;49.446;8.754;2023-02-25T05:39:56;10.00;62.40
37910;DHT22;23741;49.446;8.754;2023-02-25T05:41:59;10.00;62.40
37910;DHT22;23741;49.446;8.754;2023-02-25T05:44:00;10.00;62.40
37910;DHT22;23741;49.446;8.754;2023-02-25T05:46:02;10.00;62.80
37910;DHT22;23741;49.446;8.754;2023-02-25T05:48:05;10.00;62.70
37910;DHT22;23741;49.446;8.754;2023-02-25T05:50:07;10.00;62.70
37910;DHT22;23741;49.446;8.754;2023-02-25T05:52:09;10.00;62.70
37910;DHT22;23741;49.446;8.754;2023-02-25T05:54:11;10.00;62.80
37910;DHT22;23741;49.446;8.754;2023-02-25T05:56:14;10.00;62.80
37910;DHT22;23741;49.446;8.754;2023-02-25T05:58:16;10.00;62.80
37910;DHT22;23741;49.446;8.754;2023-02-25T06:00:17;9.90;62.70
37910;DHT22;23741;49.446;8.754;2023-02-25T06:02:21;9.90;62.70
37910;DHT22;23741;49.446;8.754;2023-02-25T06:04:23;10.00;62.90
37910;DHT22;23741;49.446;8.754;2023-02-25T06:06:26;10.00;63.00
37910;DHT22;23741;49.446;8.754;2023-02-25T06:08:28;10.00;62.90
37910;DHT22;23741;49.446;8.754;2023-02-25T06:10:29;10.00;62.90
37910;DHT22;23741;49.446;8.754;2023-02-25T06:12:39;10.00;62.80
37910;DHT22;23741;49.446;8.754;2023-02-25T06:14:41;10.00;62.90
37910;DHT22;23741;49.446;8.754;2023-02-25T06:16:42;10.00;63.00
37910;DHT22;23741;49.446;8.754;2023-02-25T06:18:45;10.00;62.90
37910;DHT22;23741;49.446;8.754;2023-02-25T06:20:47;10.00;62.90
37910;DHT22;23741;49.446;8.754;2023-02-25T06:22:48;10.00;62.90
37910;DHT22;23741;49.446;8.754;2023-02-25T06:24:50;10.00;63.00
37910;DHT22;23741;49.446;8.754;2023-02-25T06:26:52;10.00;63.10
37910;DHT22;23741;49.446;8.754;2023-02-25T06:28:54;10.00;63.10
37910;DHT22;23741;49.446;8.754;2023-02-25T06:30:55;10.00;63.00
37910;DHT22;23741;49.446;8.754;2023-02-25T06:32:57;10.00;63.10
37910;DHT22;23741;49.446;8.754;2023-02-25T06:34:59;10.00;63.10
37910;DHT22;23741;49.446;8.754;2023-02-25T06:37:01;10.00;63.00
37910;DHT22;23741;49.446;8.754;2023-02-25T06:39:02;10.00;62.90
37910;DHT22;23741;49.446;8.754;2023-02-25T06:41:08;10.00;62.90
37910;DHT22;23741;49.446;8.754;2023-02-25T06:43:10;10.00;63.00
37910;DHT22;23741;49.446;8.754;2023-02-25T06:45:11;10.00;63.00
37910;DHT22;23741;49.446;8.754;2023-02-25T06:47:13;10.00;62.80
37910;DHT22;23741;49.446;8.754;2023-02-25T06:49:15;10.00;62.80
37910;DHT22;23741;49.446;8.754;2023-02-25T06:51:16;10.00;63.00
37910;DHT22;23741;49.446;8.754;2023-02-25T06:53:18;10.00;62.90
37910;DHT22;23741;49.446;8.754;2023-02-25T06:55:20;10.00;63.10
37910;DHT22;23741;49.446;8.754;2023-02-25T06:57:21;10.00;63.00
37910;DHT22;23741;49.446;8.754;2023-02-25T06:59:23;10.00;62.90
37910;DHT22;23741;49.446;8.754;2023-02-25T07:01:25;10.00;62.80
37910;DHT22;23741;49.446;8.754;2023-02-25T07:03:27;10.00;62.90
37910;DHT22;23741;49.446;8.754;2023-02-25T07:05:28;10.00;62.90
37910;DHT22;23741;49.446;8.754;2023-02-25T07:07:30;10.00;62.90
37910;DHT22;23741;49.446;8.754;2023-02-25T07:09:32;10.00;62.90
37910;DHT22;23741;49.446;8.754;2023-02-25T07:11:33;10.00;63.00
37910;DHT22;23741;49.446;8.754;2023-02-25T07:13:36;10.00;62.90
37910;DHT22;23741;49.446;8.754;2023-02-25T07:15:38;10.00;62.90
37910;DHT22;23741;49.446;8.754;2023-02-25T07:17:40;10.00;62.80
37910;DHT22;23741;49.446;8.754;2023-02-25T07:19:42;10.00;62.80
37910;DHT22;23741;49.446;8.754;2023-02-25T07:21:43;10.00;62.60
37910;DHT22;23741;49.446;8.754;2023-02-25T07:23:45;10.00;61.90
37910;DHT22;23741;49.446;8.754;2023-02-25T07:25:47;10.00;62.00
37910;DHT22;23741;49.446;8.754;2023-02-25T07:27:48;10.00;62.00
37910;DHT22;23741;49.446;8.754;2023-02-25T07:29:50;10.00;62.00
37910;DHT22;23741;49.446;8.754;2023-02-25T07:31:52;10.00;62.20
37910;DHT22;23741;49.446;8.754;2023-02-25T07:33:54;10.00;62.20
37910;DHT22;23741;49.446;8.754;2023-02-25T07:35:56;10.00;62.20
37910;DHT22;23741;49.446;8.754;2023-02-25T07:37:58;10.00;62.40
37910;DHT22;23741;49.446;8.754;2023-02-25T07:40:00;10.00;62.50
37910;DHT22;23741;49.446;8.754;2023-02-25T07:42:02;10.00;62.50
37910;DHT22;23741;49.446;8.754;2023-02-25T07:44:04;10.00;62.50
37910;DHT22;23741;49.446;8.754;2023-02-25T07:46:06;10.00;62.60
37910;DHT22;23741;49.446;8.754;2023-02-25T07:48:08;10.00;62.60
37910;DHT22;23741;49.446;8.754;2023-02-25T07:50:10;10.00;62.60
37910;DHT22;23741;49.446;8.754;2023-02-25T07:52:13;10.10;62.70
37910;DHT22;23741;49.446;8.754;2023-02-25T07:54:15;10.10;62.70
37910;DHT22;23741;49.446;8.754;2023-02-25T07:56:18;10.10;62.60
37910;DHT22;23741;49.446;8.754;2023-02-25T07:58:19;10.10;62.50
37910;DHT22;23741;49.446;8.754;2023-02-25T08:00:21;10.10;62.40
37910;DHT22;23741;49.446;8.754;2023-02-25T08:02:23;10.20;62.30
37910;DHT22;23741;49.446;8.754;2023-02-25T08:04:25;10.20;62.30
37910;DHT22;23741;49.446;8.754;2023-02-25T08:06:28;10.20;62.30
37910;DHT22;23741;49.446;8.754;2023-02-25T08:08:29;10.20;62.20
37910;DHT22;23741;49.446;8.754;2023-02-25T08:10:31;10.20;62.20
37910;DHT22;23741;49.446;8.754;2023-02-25T08:12:33;10.20;62.00
37910;DHT22;23741;49.446;8.754;2023-02-25T08:14:36;10.20;61.90
37910;DHT22;23741;49.446;8.754;2023-02-25T08:16:38;10.20;62.20
37910;DHT22;23741;49.446;8.754;2023-02-25T08:18:40;10.20;62.00
37910;DHT22;23741;49.446;8.754;2023-02-25T08:20:45;10.20;61.70
37910;DHT22;23741;49.446;8.754;2023-02-25T08:22:47;10.20;61.70
37910;DHT22;23741;49.446;8.754;2023-02-25T08:24:49;10.20;61.60
37910;DHT22;23741;49.446;8.754;2023-02-25T08:26:51;10.20;61.60
37910;DHT22;23741;49.446;8.754;2023-02-25T08:28:53;10.30;61.60
37910;DHT22;23741;49.446;8.754;2023-02-25T08:30:54;10.30;62.50
37910;DHT22;23741;49.446;8.754;2023-02-25T08:32:56;10.30;61.70
37910;DHT22;23741;49.446;8.754;2023-02-25T08:34:58;10.30;61.60
37910;DHT22;23741;49.446;8.754;2023-02-25T08:37:00;10.30;61.70
37910;DHT22;23741;49.446;8.754;2023-02-25T08:39:01;10.30;61.20
37910;DHT22;23741;49.446;8.754;2023-02-25T08:41:04;10.30;61.40
37910;DHT22;23741;49.446;8.754;2023-02-25T08:43:06;10.30;62.00
37910;DHT22;23741;49.446;8.754;2023-02-25T08:45:08;10.40;61.50
37910;DHT22;23741;49.446;8.754;2023-02-25T08:47:11;10.40;61.40
37910;DHT22;23741;49.446;8.754;2023-02-25T08:49:13;10.40;61.20
37910;DHT22;23741;49.446;8.754;2023-02-25T08:51:14;10.40;61.20
37910;DHT22;23741;49.446;8.754;2023-02-25T08:53:16;10.40;61.20
37910;DHT22;23741;49.446;8.754;2023-02-25T08:55:18;10.50;61.30
37910;DHT22;23741;49.446;8.754;2023-02-25T08:57:19;10.40;61.10
37910;DHT22;23741;49.446;8.754;2023-02-25T08:59:21;10.40;61.10
37910;DHT22;23741;49.446;8.754;2023-02-25T09:01:23;10.40;60.80
37910;DHT22;23741;49.446;8.754;2023-02-25T09:03:25;10.40;60.80
37910;DHT22;23741;49.446;8.754;2023-02-25T09:05:27;10.40;60.40
37910;DHT22;23741;49.446;8.754;2023-02-25T09:07:29;10.40;60.50
37910;DHT22;23741;49.446;8.754;2023-02-25T09:09:31;10.40;60.30
37910;DHT22;23741;49.446;8.754;2023-02-25T09:11:34;10.40;60.40
37910;DHT22;23741;49.446;8.754;2023-02-25T09:13:35;10.40;60.60
37910;DHT22;23741;49.446;8.754;2023-02-25T09:15:37;10.30;60.60
37910;DHT22;23741;49.446;8.754;2023-02-25T09:17:39;10.30;60.70
37910;DHT22;23741;49.446;8.754;2023-02-25T09:19:41;10.30;60.60
37910;DHT22;23741;49.446;8.754;2023-02-25T09:21:43;10.30;61.20
37910;DHT22;23741;49.446;8.754;2023-02-25T09:23:45;10.30;60.50
37910;DHT22;23741;49.446;8.754;2023-02-25T09:25:47;10.30;60.40
37910;DHT22;23741;49.446;8.754;2023-02-25T09:27:49;10.30;60.40
37910;DHT22;23741;49.446;8.754;2023-02-25T09:29:50;10.30;60.30
37910;DHT22;23741;49.446;8.754;2023-02-25T09:31:52;10.30;60.40
37910;DHT22;23741;49.446;8.754;2023-02-25T09:33:55;10.30;60.50
37910;DHT22;23741;49.446;8.754;2023-02-25T09:36:06;10.20;60.30
37910;DHT22;23741;49.446;8.754;2023-02-25T09:38:09;10.20;60.30
37910;DHT22;23741;49.446;8.754;2023-02-25T09:40:12;10.20;60.30
37910;DHT22;23741;49.446;8.754;2023-02-25T09:42:18;10.20;60.20
37910;DHT22;23741;49.446;8.754;2023-02-25T09:44:23;10.20;60.30
37910;DHT22;23741;49.446;8.754;2023-02-25T09:46:28;10.20;60.50
37910;DHT22;23741;49.446;8.754;2023-02-25T09:48:31;10.20;60.30
37910;DHT22;23741;49.446;8.754;2023-02-25T09:50:35;10.30;60.50
37910;DHT22;23741;49.446;8.754;2023-02-25T09:52:46;10.30;60.40
37910;DHT22;23741;49.446;8.754;2023-02-25T09:55:02;10.30;60.10
37910;DHT22;23741;49.446;8.754;2023-02-25T09:57:08;10.30;60.30
37910;DHT22;23741;49.446;8.754;2023-02-25T10:32:00;10.50;60.60
37910;DHT22;23741;49.446;8.754;2023-02-25T10:34:19;10.40;60.50
37910;DHT22;23741;49.446;8.754;2023-02-25T10:36:30;10.50;60.40
37910;DHT22;23741;49.446;8.754;2023-02-25T10:38:35;10.50;60.40
37910;DHT22;23741;49.446;8.754;2023-02-25T10:40:38;10.50;60.70
37910;DHT22;23741;49.446;8.754;2023-02-25T10:42:42;10.50;60.70
37910;DHT22;23741;49.446;8.754;2023-02-25T10:44:46;10.50;60.40
37910;DHT22;23741;49.446;8.754;2023-02-25T10:46:51;10.50;60.20
37910;DHT22;23741;49.446;8.754;2023-02-25T10:48:58;10.40;60.40
37910;DHT22;23741;49.446;8.754;2023-02-25T10:51:07;10.40;60.00
37910;DHT22;23741;49.446;8.754;2023-02-25T10:53:16;10.40;60.40
37910;DHT22;23741;49.446;8.754;2023-02-25T10:57:39;10.40;60.90
37910;DHT22;23741;49.446;8.754;2023-02-25T10:59:42;10.50;61.30
37910;DHT22;23741;49.446;8.754;2023-02-25T11:01:45;10.50;61.50
37910;DHT22;23741;49.446;8.754;2023-02-25T11:03:55;10.50;61.40
37910;DHT22;23741;49.446;8.754;2023-02-25T11:06:06;10.50;61.30
37910;DHT22;23741;49.446;8.754;2023-02-25T11:08:26;10.50;61.40
37910;DHT22;23741;49.446;8.754;2023-02-25T11:10:28;10.60;61.60
37910;DHT22;23741;49.446;8.754;2023-02-25T11:12:30;10.60;61.50
37910;DHT22;23741;49.446;8.754;2023-02-25T11:14:33;10.60;61.70
37910;DHT22;23741;49.446;8.754;2023-02-25T11:16:36;10.70;61.40
37910;DHT22;23741;49.446;8.754;2023-02-25T11:18:39;10.70;61.50
37910;DHT22;23741;49.446;8.754;2023-02-25T11:20:46;10.70;61.60
37910;DHT22;23741;49.446;8.754;2023-02-25T11:22:50;10.80;61.70
37910;DHT22;23741;49.446;8.754;2023-02-25T11:25:03;10.80;60.80
37910;DHT22;23741;49.446;8.754;2023-02-25T11:27:06;10.80;60.70
37910;DHT22;23741;49.446;8.754;2023-02-25T11:29:12;10.90;60.50
37910;DHT22;23741;49.446;8.754;2023-02-25T11:33:24;10.90;60.80
37910;DHT22;23741;49.446;8.754;2023-02-25T11:35:28;10.90;60.40
37910;DHT22;23741;49.446;8.754;2023-02-25T11:37:38;10.90;60.40
37910;DHT22;23741;49.446;8.754;2023-02-25T11:39:53;10.90;60.30
37910;DHT22;23741;49.446;8.754;2023-02-25T11:41:56;10.90;60.40
37910;DHT22;23741;49.446;8.754;2023-02-25T11:44:09;10.90;60.20
37910;DHT22;23741;49.446;8.754;2023-02-25T11:46:13;10.90;60.10
37910;DHT22;23741;49.446;8.754;2023-02-25T11:48:19;10.90;60.10
37910;DHT22;23741;49.446;8.754;2023-02-25T11:56:54;11.00;59.90
37910;DHT22;23741;49.446;8.754;2023-02-25T11:59:13;11.00;59.00
37910;DHT22;23741;49.446;8.754;2023-02-25T12:01:25;11.00;59.40
37910;DHT22;23741;49.446;8.754;2023-02-25T12:06:06;11.00;59.80
37910;DHT22;23741;49.446;8.754;2023-02-25T12:23:28;11.20;59.00
37910;DHT22;23741;49.446;8.754;2023-02-25T12:27:53;11.20;59.10
37910;DHT22;23741;49.446;8.754;2023-02-25T13:02:20;11.80;58.60
37910;DHT22;23741;49.446;8.754;2023-02-25T13:09:12;11.80;58.10
37910;DHT22;23741;49.446;8.754;2023-02-25T13:11:38;11.80;58.50
37910;DHT22;23741;49.446;8.754;2023-02-25T13:18:30;11.80;58.00
37910;DHT22;23741;49.446;8.754;2023-02-25T13:29:40;11.70;57.30
37910;DHT22;23741;49.446;8.754;2023-02-25T13:36:23;11.70;57.60
37910;DHT22;23741;49.446;8.754;2023-02-25T13:45:00;11.70;57.60
37910;DHT22;23741;49.446;8.754;2023-02-25T14:12:15;11.30;58.40
37910;DHT22;23741;49.446;8.754;2023-02-25T14:20:24;11.10;59.20
37910;DHT22;23741;49.446;8.754;2023-02-25T14:22:33;11.10;59.50
37910;DHT22;23741;49.446;8.754;2023-02-25T14:29:24;11.10;60.20
37910;DHT22;23741;49.446;8.754;2023-02-25T14:36:09;11.20;60.40
37910;DHT22;23741;49.446;8.754;2023-02-25T14:38:25;11.20;60.50
37910;DHT22;23741;49.446;8.754;2023-02-25T14:44:50;11.30;61.00
37910;DHT22;23741;49.446;8.754;2023-02-25T14:46:59;11.30;61.00
37910;DHT22;23741;49.446;8.754;2023-02-25T14:49:12;11.40;61.10
37910;DHT22;23741;49.446;8.754;2023-02-25T14:55:28;11.60;60.50
37910;DHT22;23741;49.446;8.754;2023-02-25T15:13:21;12.30;59.80
37910;DHT22;23741;49.446;8.754;2023-02-25T15:20:18;12.50;59.50
37910;DHT22;23741;49.446;8.754;2023-02-25T15:22:26;12.60;59.70
37910;DHT22;23741;49.446;8.754;2023-02-25T15:24:39;12.60;59.40
37910;DHT22;23741;49.446;8.754;2023-02-25T15:26:46;12.70;59.20
37910;DHT22;23741;49.446;8.754;2023-02-25T15:28:53;12.80;58.90
37910;DHT22;23741;49.446;8.754;2023-02-25T15:33:12;12.80;58.50
37910;DHT22;23741;49.446;8.754;2023-02-25T15:35:20;12.80;58.40
37910;DHT22;23741;49.446;8.754;2023-02-25T15:41:49;12.70;57.40
37910;DHT22;23741;49.446;8.754;2023-02-25T15:48:36;12.50;57.40
37910;DHT22;23741;49.446;8.754;2023-02-25T15:52:57;12.30;57.60
37910;DHT22;23741;49.446;8.754;2023-02-25T15:55:14;12.30;57.70
37910;DHT22;23741;49.446;8.754;2023-02-25T16:01:45;12.00;58.20
37910;DHT22;23741;49.446;8.754;2023-02-25T16:03:48;12.00;58.20
37910;DHT22;23741;49.446;8.754;2023-02-25T16:05:51;11.90;58.30
37910;DHT22;23741;49.446;8.754;2023-02-25T16:08:04;11.80;58.40
37910;DHT22;23741;49.446;8.754;2023-02-25T16:10:15;11.80;57.50
37910;DHT22;23741;49.446;8.754;2023-02-25T16:12:20;11.60;57.60
37910;DHT22;23741;49.446;8.754;2023-02-25T16:14:32;11.60;57.30
37910;DHT22;23741;49.446;8.754;2023-02-25T16:16:35;11.50;57.40
37910;DHT22;23741;49.446;8.754;2023-02-25T16:18:40;11.40;57.10
37910;DHT22;23741;49.446;8.754;2023-02-25T16:20:46;11.30;57.00
37910;DHT22;23741;49.446;8.754;2023-02-25T16:22:52;11.20;57.20
37910;DHT22;23741;49.446;8.754;2023-02-25T16:24:57;11.10;57.50
37910;DHT22;23741;49.446;8.754;2023-02-25T16:31:28;10.80;57.90
37910;DHT22;23741;49.446;8.754;2023-02-25T16:33:38;10.70;58.00
37910;DHT22;23741;49.446;8.754;2023-02-25T16:35:48;10.60;58.00
37910;DHT22;23741;49.446;8.754;2023-02-25T16:40:16;10.40;58.40
37910;DHT22;23741;49.446;8.754;2023-02-25T16:42:21;10.40;58.50
37910;DHT22;23741;49.446;8.754;2023-02-25T16:44:32;10.30;58.70
37910;DHT22;23741;49.446;8.754;2023-02-25T16:46:40;10.30;58.90
37910;DHT22;23741;49.446;8.754;2023-02-25T16:48:50;10.20;59.00
37910;DHT22;23741;49.446;8.754;2023-02-25T16:50:55;10.20;59.20
37910;DHT22;23741;49.446;8.754;2023-02-25T16:52:58;10.10;59.20
37910;DHT22;23741;49.446;8.754;2023-02-25T16:55:02;10.10;59.40
37910;DHT22;23741;49.446;8.754;2023-02-25T16:57:20;10.10;59.50